AO-0026 weather

CLOSED Nova Chaves Airport
Nova Chaves, Cuanza Sul Province, Angola

Public forecast

Using degrees Celsius for public forecast. Weather courtesy of forecast.io.

METAR (pilot weather report)

Closest report is Saurimo Airport, 75.5 nm (139.9 km) NW. Retrieved 2019/04/26 15:00 UTC (1 hour ago):

FNSA 261500Z 00000KT 9999 BKN025 29/20 Q1017

TAF (pilot weather forecast)

Closest forecast is Saurimo Airport, 75.5 nm (139.9 km) NW. Retrieved 2019/04/26 12:45 UTC (4 hours ago):

TAF FNSA 261045Z 2612/2624 09005KT 9999 BKN025 BECMG 2615/2617 VRB03KT TS SCT018 BKN022 FEW025CB